Time;durP1;ratioP1;P1;durP2;ratioP2;P2;SDS_P1;SDS_P2;PMS_P1;PMS_P2;Temp;Humidity;BMP_temperature;BMP_pressure;BME280_temperature;BME280_humidity;BME280_pressure;Samples;Min_cycle;Max_cycle;Signal;HPM_P1;HPM_P2
2022/07/16 00:04:50;;;;;;;1.27;0.68;;;11.40;59.00;;;;;;5030816;28;20703;-53
2022/07/16 00:07:21;;;;;;;1.08;0.90;;;11.40;59.10;;;;;;5035299;28;20204;-49
2022/07/16 00:13:05;;;;;;;0.80;0.80;;;11.40;59.30;;;;;;5033247;28;20199;-49
2022/07/16 00:15:36;;;;;;;0.68;0.65;;;11.50;59.40;;;;;;5034924;28;20199;-47
2022/07/16 00:20:55;;;;;;;1.25;0.70;;;11.60;59.60;;;;;;5034154;28;20262;-56
2022/07/16 00:23:25;;;;;;;0.75;0.68;;;11.60;59.70;;;;;;5034124;28;20199;-54
2022/07/16 00:25:56;;;;;;;1.05;0.88;;;11.60;59.70;;;;;;5033879;28;20679;-49
2022/07/16 00:28:27;;;;;;;1.52;0.90;;;11.70;59.80;;;;;;5034767;28;20199;-50
2022/07/16 00:30:57;;;;;;;1.08;0.85;;;11.70;60.50;;;;;;5033990;28;20714;-47
2022/07/16 00:33:28;;;;;;;2.15;1.10;;;11.70;59.90;;;;;;5034747;28;20193;-47
2022/07/16 00:36:01;;;;;;;1.83;1.00;;;11.70;60.00;;;;;;5034023;28;20203;-52
2022/07/16 00:38:32;;;;;;;2.55;1.08;;;11.80;60.00;;;;;;5034686;28;20562;-49
2022/07/16 00:41:03;;;;;;;1.48;1.00;;;11.80;60.00;;;;;;5033686;28;20226;-56
2022/07/16 00:47:17;;;;;;;1.38;1.00;;;11.90;60.10;;;;;;5033251;28;20192;-48
2022/07/16 00:49:47;;;;;;;1.73;1.08;;;11.90;60.10;;;;;;5033143;28;20577;-47
2022/07/16 00:52:20;;;;;;;1.27;1.05;;;12.00;60.30;;;;;;5049760;28;20188;-52
2022/07/16 00:54:51;;;;;;;1.27;1.00;;;12.00;60.40;;;;;;5052889;28;20203;-43
2022/07/16 00:57:23;;;;;;;2.45;1.00;;;12.00;60.40;;;;;;5053314;28;20565;-43
2022/07/16 00:59:54;;;;;;;1.13;0.90;;;12.10;60.60;;;;;;5053494;28;20219;-46
2022/07/16 01:02:25;;;;;;;2.08;1.08;;;12.10;60.60;;;;;;5038330;28;20193;-44
2022/07/16 01:04:56;;;;;;;0.95;0.80;;;12.10;60.70;;;;;;5033992;28;20625;-44
2022/07/16 01:07:29;;;;;;;1.52;0.90;;;12.10;60.80;;;;;;5033610;28;20192;-44
2022/07/16 01:10:01;;;;;;;2.15;0.80;;;12.20;60.90;;;;;;5032833;28;20223;-46
2022/07/16 01:12:31;;;;;;;1.77;0.93;;;12.20;60.80;;;;;;5032892;28;20196;-51
2022/07/16 01:15:02;;;;;;;1.90;1.20;;;12.20;60.70;;;;;;5032996;28;20718;-46
2022/07/16 01:17:33;;;;;;;2.35;1.00;;;12.30;60.50;;;;;;5033118;28;20196;-50
2022/07/16 01:20:05;;;;;;;1.70;1.13;;;12.30;60.20;;;;;;5033378;28;20224;-46
2022/07/16 01:22:38;;;;;;;1.92;1.00;;;12.30;60.30;;;;;;5033601;28;20295;-44
2022/07/16 01:25:13;;;;;;;1.95;1.08;;;12.40;60.50;;;;;;5034442;28;20223;-44
2022/07/16 01:27:43;;;;;;;1.55;0.90;;;12.40;60.60;;;;;;5032669;28;20258;-44
2022/07/16 01:30:14;;;;;;;2.08;0.80;;;12.50;60.70;;;;;;5033361;28;20220;-46
2022/07/16 01:32:45;;;;;;;2.58;1.00;;;12.50;62.20;;;;;;5033306;28;20567;-44
2022/07/16 01:35:16;;;;;;;1.00;0.70;;;12.60;63.60;;;;;;5033060;28;20192;-50
2022/07/16 01:37:46;;;;;;;5.28;1.00;;;12.70;63.50;;;;;;5032365;28;20238;-44
2022/07/16 01:40:19;;;;;;;1.80;0.98;;;12.90;63.10;;;;;;5033002;28;20216;-43
2022/07/16 01:42:49;;;;;;;2.55;0.80;;;13.10;62.80;;;;;;5033378;28;20192;-49
2022/07/16 01:45:20;;;;;;;1.50;0.95;;;13.20;62.20;;;;;;5032769;28;20691;-45
2022/07/16 01:47:51;;;;;;;1.58;1.00;;;13.40;61.70;;;;;;5033230;28;20188;-47
2022/07/16 01:50:22;;;;;;;1.27;0.93;;;13.40;61.20;;;;;;5049193;28;20215;-43
2022/07/16 01:52:52;;;;;;;2.13;1.20;;;13.50;60.90;;;;;;5052267;28;20222;-51
2022/07/16 01:55:25;;;;;;;1.45;0.88;;;13.50;60.70;;;;;;5052732;28;20202;-52
2022/07/16 01:57:56;;;;;;;2.47;1.00;;;13.60;60.60;;;;;;5052772;28;20184;-46
2022/07/16 02:00:26;;;;;;;1.38;0.73;;;13.60;60.50;;;;;;5052048;28;20699;-42
2022/07/16 02:02:57;;;;;;;1.75;0.90;;;13.70;60.50;;;;;;5032469;28;20191;-52
2022/07/16 02:05:28;;;;;;;2.20;0.95;;;13.70;60.50;;;;;;5049122;28;20598;-48
2022/07/16 02:07:59;;;;;;;1.15;0.95;;;13.70;60.40;;;;;;5045870;28;20556;-45
2022/07/16 02:10:31;;;;;;;1.08;0.95;;;13.70;60.50;;;;;;5032031;28;20220;-50
2022/07/16 02:13:02;;;;;;;1.10;0.80;;;13.70;60.50;;;;;;5031222;28;20188;-50
2022/07/16 02:15:33;;;;;;;1.30;0.90;;;13.80;60.60;;;;;;5032069;28;20192;-50
2022/07/16 02:18:04;;;;;;;2.47;0.80;;;13.80;60.60;;;;;;5030765;28;20188;-47
2022/07/16 02:20:35;;;;;;;0.77;0.70;;;13.80;60.60;;;;;;5048491;28;20347;-55
2022/07/16 02:23:06;;;;;;;1.00;0.90;;;13.80;60.60;;;;;;5051175;28;20196;-57
2022/07/16 02:25:39;;;;;;;0.73;0.70;;;13.80;60.60;;;;;;5052524;28;20231;-44
2022/07/16 02:28:10;;;;;;;1.55;0.82;;;13.90;60.60;;;;;;5051619;28;20195;-50
2022/07/16 02:30:41;;;;;;;1.98;1.02;;;13.90;60.60;;;;;;5051863;28;20238;-46
2022/07/16 02:33:13;;;;;;;0.70;0.63;;;13.90;60.50;;;;;;5051192;28;20702;-56
2022/07/16 02:35:44;;;;;;;1.08;0.73;;;13.90;60.50;;;;;;5047770;28;20207;-48
2022/07/16 02:38:16;;;;;;;0.93;0.80;;;13.90;60.50;;;;;;5031326;28;20187;-43
2022/07/16 02:40:49;;;;;;;1.02;0.95;;;14.00;60.50;;;;;;5031249;28;20246;-44
2022/07/16 02:43:20;;;;;;;1.27;0.73;;;14.00;60.40;;;;;;5031459;28;20196;-50
2022/07/16 02:45:50;;;;;;;1.33;0.95;;;14.00;60.50;;;;;;5031022;28;20224;-45
2022/07/16 02:48:21;;;;;;;1.50;0.90;;;14.00;60.50;;;;;;5031726;28;20549;-56
2022/07/16 02:50:52;;;;;;;1.00;0.90;;;14.00;60.50;;;;;;5035046;28;20228;-50
2022/07/16 02:53:23;;;;;;;1.00;0.90;;;14.00;60.50;;;;;;5051044;28;20191;-61
2022/07/16 02:55:55;;;;;;;1.08;0.82;;;14.10;60.60;;;;;;5050814;28;20207;-51
2022/07/16 02:58:26;;;;;;;1.08;0.90;;;14.10;60.60;;;;;;5051457;28;20199;-52
2022/07/16 03:00:57;;;;;;;0.60;0.60;;;14.10;60.50;;;;;;5047898;28;20227;-49
2022/07/16 03:03:27;;;;;;;1.00;0.82;;;14.10;59.80;;;;;;5031316;28;20200;-47
2022/07/16 03:05:58;;;;;;;0.75;0.73;;;14.20;59.60;;;;;;5031197;28;20224;-54
2022/07/16 03:08:29;;;;;;;0.70;0.60;;;14.20;59.70;;;;;;5031185;28;20656;-52
2022/07/16 03:11:01;;;;;;;1.08;0.77;;;14.20;59.60;;;;;;5030490;28;20220;-44
2022/07/16 03:13:32;;;;;;;0.75;0.75;;;14.20;59.50;;;;;;5034308;28;20199;-60
2022/07/16 03:16:03;;;;;;;1.10;0.75;;;14.30;59.60;;;;;;5040824;28;20222;-48
2022/07/16 03:18:33;;;;;;;0.98;0.70;;;14.30;59.60;;;;;;5031786;28;20199;-54
2022/07/16 03:21:04;;;;;;;1.10;0.70;;;14.30;59.60;;;;;;5036595;28;20227;-45
2022/07/16 03:23:35;;;;;;;0.80;0.77;;;14.30;59.60;;;;;;5050654;28;20662;-43
2022/07/16 03:26:07;;;;;;;1.10;0.80;;;14.40;59.60;;;;;;5051144;28;20218;-47
2022/07/16 03:28:38;;;;;;;0.77;0.60;;;14.40;59.60;;;;;;5049886;28;20187;-52
2022/07/16 03:31:09;;;;;;;1.15;0.63;;;14.40;59.60;;;;;;5038320;28;20596;-58
2022/07/16 03:33:39;;;;;;;0.95;0.60;;;14.40;59.60;;;;;;5050283;28;20194;-54
2022/07/16 03:36:10;;;;;;;1.05;0.77;;;14.40;59.70;;;;;;5049731;28;20195;-48
2022/07/16 03:41:41;;;;;;;0.88;0.73;;;14.50;59.60;;;;;;5008269;28;20193;-52
2022/07/16 03:44:13;;;;;;;1.30;0.80;;;14.50;59.50;;;;;;5041493;28;20190;-56
2022/07/16 03:46:44;;;;;;;1.05;0.95;;;14.50;59.50;;;;;;5049810;28;20280;-54
2022/07/16 03:49:15;;;;;;;1.20;0.85;;;14.60;59.60;;;;;;5049812;28;20218;-50
2022/07/16 03:51:46;;;;;;;1.05;0.90;;;14.60;59.60;;;;;;5038306;28;20204;-54
2022/07/16 03:54:16;;;;;;;1.67;0.95;;;14.60;59.60;;;;;;5030325;28;20203;-48
2022/07/16 03:56:49;;;;;;;2.83;1.35;;;14.60;59.50;;;;;;5033090;28;20188;-53
2022/07/16 03:59:19;;;;;;;1.48;1.02;;;14.60;59.50;;;;;;5031157;28;20692;-47
2022/07/16 04:01:50;;;;;;;1.20;1.10;;;14.70;59.50;;;;;;5030673;28;20204;-48
2022/07/16 04:04:21;;;;;;;1.05;0.95;;;14.70;59.50;;;;;;5031228;28;20203;-48
2022/07/16 04:06:52;;;;;;;0.98;0.90;;;14.70;59.50;;;;;;5030069;28;20590;-53
2022/07/16 04:09:22;;;;;;;2.03;1.13;;;14.70;59.50;;;;;;5029996;28;20223;-43
2022/07/16 04:11:55;;;;;;;2.33;1.02;;;14.70;59.60;;;;;;5029921;28;20203;-56
2022/07/16 04:14:26;;;;;;;1.40;1.30;;;14.70;59.60;;;;;;5029650;28;20284;-45
2022/07/16 04:16:57;;;;;;;2.42;1.65;;;14.80;59.60;;;;;;5030857;28;20215;-47
2022/07/16 04:19:27;;;;;;;1.50;1.40;;;14.80;59.70;;;;;;5036492;28;20792;-45
2022/07/16 04:21:58;;;;;;;1.83;1.35;;;14.80;59.70;;;;;;5036170;28;20200;-58
2022/07/16 04:24:29;;;;;;;2.00;1.60;;;14.80;59.70;;;;;;5029931;28;20196;-44
2022/07/16 04:27:01;;;;;;;1.67;1.58;;;14.80;59.70;;;;;;5029835;28;20227;-45
2022/07/16 04:29:32;;;;;;;1.42;1.33;;;14.90;59.70;;;;;;5037591;28;20219;-50
2022/07/16 04:32:02;;;;;;;2.05;1.75;;;14.90;59.70;;;;;;5049978;28;20278;-57
2022/07/16 04:34:33;;;;;;;3.03;2.03;;;14.90;59.70;;;;;;5050299;28;20192;-45
2022/07/16 04:37:04;;;;;;;3.00;2.65;;;14.90;59.60;;;;;;5050374;28;20614;-53
2022/07/16 04:39:35;;;;;;;2.70;2.20;;;14.90;59.60;;;;;;5049702;28;20211;-48
2022/07/16 04:42:07;;;;;;;3.03;2.28;;;14.90;59.60;;;;;;5048928;28;20196;-51
2022/07/16 04:44:38;;;;;;;3.75;2.55;;;14.90;59.50;;;;;;5050196;28;20188;-43
2022/07/16 04:47:09;;;;;;;17.95;13.40;;;14.90;59.60;;;;;;5052024;28;20257;-52
2022/07/16 04:49:40;;;;;;;36.78;26.95;;;14.90;58.60;;;;;;5054175;28;20212;-44
2022/07/16 04:52:13;;;;;;;30.85;23.13;;;14.80;55.70;;;;;;5038087;28;20227;-43
2022/07/16 04:54:44;;;;;;;31.83;23.00;;;14.70;55.90;;;;;;5032914;28;20200;-44
2022/07/16 05:00:18;;;;;;;27.85;21.02;;;14.60;56.40;;;;;;5032652;28;20301;-45
2022/07/16 05:03:00;;;;;;;23.35;19.63;;;14.60;56.70;;;;;;5033353;28;20647;-43
2022/07/16 05:05:33;;;;;;;23.55;19.13;;;14.60;56.80;;;;;;5033680;28;20225;-44
2022/07/16 05:08:04;;;;;;;24.33;19.75;;;14.60;56.90;;;;;;5033971;28;20200;-46
2022/07/16 05:10:35;;;;;;;28.83;20.95;;;14.60;57.00;;;;;;5033136;28;20582;-53
2022/07/16 05:13:10;;;;;;;26.30;20.27;;;14.60;56.90;;;;;;5032512;28;20188;-54
2022/07/16 05:15:40;;;;;;;23.10;18.95;;;14.50;56.90;;;;;;5047110;28;20191;-58
2022/07/16 05:18:11;;;;;;;23.65;18.65;;;14.50;57.00;;;;;;5053148;28;20188;-43
2022/07/16 05:20:42;;;;;;;23.20;18.98;;;14.50;57.10;;;;;;5048848;28;20254;-44
2022/07/16 05:23:13;;;;;;;23.25;18.65;;;14.50;57.20;;;;;;5051315;28;20200;-49
2022/07/16 05:25:43;;;;;;;22.60;17.88;;;14.50;57.30;;;;;;5052893;28;20604;-50
2022/07/16 05:28:32;;;;;;;23.63;18.30;;;14.50;57.40;;;;;;5053141;28;20199;-43
2022/07/16 05:31:03;;;;;;;23.90;17.52;;;14.50;57.50;;;;;;5052049;28;20219;-44
2022/07/16 05:33:34;;;;;;;25.38;19.13;;;14.50;57.50;;;;;;5035697;28;20215;-51
2022/07/16 05:36:04;;;;;;;26.60;18.20;;;14.50;57.50;;;;;;5033034;28;20202;-46
2022/07/16 05:38:35;;;;;;;23.40;17.48;;;14.50;57.60;;;;;;5032854;28;20207;-50
2022/07/16 05:41:06;;;;;;;20.88;17.50;;;14.40;57.50;;;;;;5033655;28;20706;-43
2022/07/16 05:43:38;;;;;;;21.45;17.27;;;14.40;57.60;;;;;;5033009;28;20200;-44
2022/07/16 05:46:09;;;;;;;19.60;16.35;;;14.40;57.60;;;;;;5033459;28;20231;-46
2022/07/16 05:48:40;;;;;;;20.23;16.88;;;14.40;57.70;;;;;;5032967;28;20200;-45
2022/07/16 05:51:11;;;;;;;20.77;16.08;;;14.40;57.80;;;;;;5042166;28;20223;-45
2022/07/16 05:53:42;;;;;;;19.95;15.93;;;14.40;57.90;;;;;;5052840;28;20207;-45
2022/07/16 05:56:12;;;;;;;18.70;16.10;;;14.40;58.00;;;;;;5035917;28;20203;-44
2022/07/16 05:58:45;;;;;;;17.17;15.23;;;14.30;58.10;;;;;;5031832;28;20200;-44
2022/07/16 06:01:15;;;;;;;18.38;14.40;;;14.30;58.20;;;;;;5038829;28;20215;-47
2022/07/16 06:03:46;;;;;;;19.00;15.38;;;14.30;58.30;;;;;;5051890;28;20682;-51
2022/07/16 06:06:17;;;;;;;17.17;14.50;;;14.30;58.30;;;;;;5043969;28;20239;-54
2022/07/16 06:08:47;;;;;;;17.55;13.88;;;14.30;58.20;;;;;;5032320;28;20196;-50
2022/07/16 06:11:18;;;;;;;17.70;14.70;;;14.30;58.20;;;;;;5040551;28;20203;-57
2022/07/16 06:13:51;;;;;;;18.17;13.88;;;14.30;58.20;;;;;;5043008;28;20196;-46
2022/07/16 06:16:22;;;;;;;16.88;13.65;;;14.30;58.40;;;;;;5032141;28;20192;-55
2022/07/16 06:18:53;;;;;;;16.20;13.30;;;14.20;58.30;;;;;;5032799;28;20742;-57
2022/07/16 06:21:23;;;;;;;16.65;12.98;;;14.20;58.40;;;;;;5040740;28;20203;-52
2022/07/16 06:23:54;;;;;;;15.75;12.98;;;14.20;58.50;;;;;;5052319;28;20682;-58
2022/07/16 06:26:25;;;;;;;17.02;14.00;;;14.20;58.50;;;;;;5048370;28;20223;-57
2022/07/16 06:28:57;;;;;;;15.07;12.63;;;14.20;58.80;;;;;;5036967;28;20200;-52
2022/07/16 06:31:28;;;;;;;15.13;13.32;;;14.10;58.90;;;;;;5032083;28;20223;-54
2022/07/16 06:33:59;;;;;;;13.90;12.38;;;14.10;58.90;;;;;;5046496;28;20202;-50
2022/07/16 06:36:30;;;;;;;14.43;11.98;;;14.10;58.90;;;;;;5035004;28;20196;-49
2022/07/16 06:39:00;;;;;;;14.80;12.00;;;14.10;59.60;;;;;;5031076;28;20200;-55
2022/07/16 06:41:31;;;;;;;15.60;12.15;;;14.10;59.00;;;;;;5031807;28;20207;-52
2022/07/16 06:44:03;;;;;;;14.55;12.25;;;14.00;59.00;;;;;;5031932;28;20226;-48
2022/07/16 06:46:34;;;;;;;14.90;12.73;;;14.00;59.20;;;;;;5032423;28;20224;-50
2022/07/16 06:49:05;;;;;;;14.32;11.95;;;14.00;59.30;;;;;;5031588;28;20200;-57
2022/07/16 06:51:36;;;;;;;14.90;12.07;;;14.00;59.30;;;;;;5041963;28;20670;-53
2022/07/16 06:54:06;;;;;;;13.38;11.15;;;14.00;59.30;;;;;;5051471;28;20570;-46
2022/07/16 06:56:37;;;;;;;12.85;11.48;;;13.90;59.40;;;;;;5051149;28;20526;-54
2022/07/16 06:59:10;;;;;;;13.15;11.07;;;13.90;59.40;;;;;;5051874;28;20621;-49
2022/07/16 07:01:40;;;;;;;12.40;10.55;;;13.90;59.40;;;;;;5050887;28;20215;-52
2022/07/16 07:04:11;;;;;;;13.38;11.00;;;13.90;59.50;;;;;;5051674;28;20198;-55
2022/07/16 07:06:42;;;;;;;12.82;10.57;;;13.80;59.40;;;;;;5039728;28;20591;-45
2022/07/16 07:09:12;;;;;;;12.07;10.20;;;13.80;59.30;;;;;;5030445;28;20196;-50
2022/07/16 07:11:44;;;;;;;12.73;10.10;;;13.80;59.30;;;;;;5031430;28;20200;-48
2022/07/16 07:14:16;;;;;;;7.90;6.43;;;13.80;59.30;;;;;;5030398;28;20254;-48
2022/07/16 07:16:47;;;;;;;8.88;7.47;;;13.80;59.70;;;;;;5047661;28;20194;-56
2022/07/16 07:19:18;;;;;;;8.95;7.53;;;13.90;59.80;;;;;;5051089;28;20222;-52
2022/07/16 07:21:48;;;;;;;10.65;8.20;;;13.90;59.70;;;;;;5037491;28;20200;-57
2022/07/16 07:24:19;;;;;;;9.55;7.93;;;13.90;59.60;;;;;;5030898;28;20204;-46
2022/07/16 07:26:50;;;;;;;9.93;7.95;;;13.90;59.60;;;;;;5031082;28;20226;-56
2022/07/16 07:29:22;;;;;;;8.60;7.20;;;13.90;59.70;;;;;;5029986;28;20604;-54
2022/07/16 07:31:53;;;;;;;8.10;7.30;;;13.80;59.60;;;;;;5037924;28;20214;-56
2022/07/16 07:34:24;;;;;;;9.18;7.45;;;13.80;59.70;;;;;;5050939;28;20210;-52
2022/07/16 07:36:55;;;;;;;9.13;7.45;;;13.80;59.70;;;;;;5051111;28;20192;-50
2022/07/16 07:39:25;;;;;;;8.63;6.95;;;13.70;59.60;;;;;;5050164;28;20234;-45
2022/07/16 07:41:56;;;;;;;8.50;7.10;;;13.70;59.60;;;;;;5049982;28;20270;-48
2022/07/16 07:44:29;;;;;;;8.20;6.82;;;13.70;59.60;;;;;;5050339;28;20274;-46
2022/07/16 07:46:59;;;;;;;10.20;7.00;;;13.70;59.60;;;;;;5049917;28;20573;-45
2022/07/16 07:49:30;;;;;;;8.07;6.78;;;13.60;59.50;;;;;;5050673;28;20215;-48
2022/07/16 07:52:01;;;;;;;7.82;6.20;;;13.60;59.50;;;;;;5035923;28;20196;-47
2022/07/16 07:54:32;;;;;;;7.88;6.65;;;13.60;59.60;;;;;;5031376;28;20219;-50
2022/07/16 07:57:02;;;;;;;7.72;6.93;;;13.60;59.60;;;;;;5047723;28;20191;-43
2022/07/16 07:59:35;;;;;;;7.88;6.68;;;13.60;59.60;;;;;;5050180;28;20219;-53
2022/07/16 08:02:06;;;;;;;7.43;6.00;;;13.50;59.60;;;;;;5048814;28;20199;-49
2022/07/16 08:04:36;;;;;;;8.57;6.43;;;13.60;59.60;;;;;;5051190;28;20528;-49
2022/07/16 08:07:07;;;;;;;6.47;5.72;;;13.50;59.60;;;;;;5047538;28;20733;-49
2022/07/16 08:09:38;;;;;;;7.43;6.38;;;13.50;59.70;;;;;;5044070;28;20610;-55
2022/07/16 08:12:09;;;;;;;7.95;6.45;;;13.40;59.70;;;;;;5030242;28;20204;-50
2022/07/16 08:14:41;;;;;;;7.35;6.28;;;13.40;59.70;;;;;;5030178;28;20211;-53
2022/07/16 08:17:12;;;;;;;6.85;5.95;;;13.40;59.60;;;;;;5029946;28;20199;-49
2022/07/16 08:19:43;;;;;;;6.45;5.53;;;13.40;59.70;;;;;;5029476;28;20231;-47
2022/07/16 08:22:14;;;;;;;6.53;5.80;;;13.40;59.70;;;;;;5032466;28;20203;-53
2022/07/16 08:27:31;;;;;;;6.20;5.60;;;13.40;59.50;;;;;;5033305;28;20703;-60
2022/07/16 08:30:03;;;;;;;5.97;5.32;;;13.40;59.50;;;;;;5033673;28;20235;-50
2022/07/16 08:32:34;;;;;;;6.88;5.75;;;13.40;59.50;;;;;;5033957;28;20607;-56
2022/07/16 08:35:05;;;;;;;7.45;5.70;;;13.30;59.50;;;;;;5034250;28;20555;-43
2022/07/16 08:37:37;;;;;;;5.70;4.85;;;13.30;59.60;;;;;;5033729;28;20200;-45
2022/07/16 08:40:09;;;;;;;6.93;5.57;;;13.30;59.70;;;;;;5033299;28;20251;-43
2022/07/16 08:42:40;;;;;;;6.78;5.57;;;13.30;59.70;;;;;;5033099;28;20193;-44
2022/07/16 08:45:14;;;;;;;7.00;5.75;;;13.20;59.70;;;;;;5034015;28;20683;-45
2022/07/16 08:47:46;;;;;;;6.25;5.20;;;13.20;59.70;;;;;;5033357;28;20691;-45
2022/07/16 08:50:18;;;;;;;6.93;5.38;;;13.20;59.80;;;;;;5033240;28;20220;-46
2022/07/16 08:52:53;;;;;;;5.72;5.00;;;13.20;59.70;;;;;;5033425;28;20200;-51
2022/07/16 08:55:26;;;;;;;5.88;5.25;;;13.20;59.80;;;;;;5032410;28;20234;-49
2022/07/16 08:57:58;;;;;;;6.18;5.10;;;13.10;59.70;;;;;;5031968;28;20192;-51
2022/07/16 09:00:31;;;;;;;5.97;4.78;;;13.10;59.60;;;;;;5032267;28;20212;-53
2022/07/16 09:03:02;;;;;;;5.22;4.65;;;13.10;59.60;;;;;;5050965;28;20203;-56
2022/07/16 09:05:32;;;;;;;6.15;4.72;;;13.10;59.60;;;;;;5033041;28;20196;-52
2022/07/16 09:08:04;;;;;;;5.65;5.00;;;13.10;59.70;;;;;;5032650;28;20716;-56
2022/07/16 09:10:39;;;;;;;5.88;4.60;;;13.10;59.70;;;;;;5032688;28;20224;-55
2022/07/16 09:13:13;;;;;;;7.03;4.95;;;13.00;59.60;;;;;;5044306;28;20214;-48
2022/07/16 09:15:46;;;;;;;5.20;4.70;;;13.00;59.70;;;;;;5031208;28;20207;-52
2022/07/16 09:18:21;;;;;;;4.63;4.20;;;13.00;59.70;;;;;;5033051;28;20220;-56
2022/07/16 09:20:54;;;;;;;5.22;4.35;;;13.00;59.70;;;;;;5036794;28;20585;-58
2022/07/16 09:23:30;;;;;;;5.53;4.60;;;13.00;59.80;;;;;;5032691;28;20591;-56
2022/07/16 09:26:02;;;;;;;5.93;4.47;;;13.00;59.80;;;;;;5035124;28;20651;-52
2022/07/16 09:28:43;;;;;;;5.32;4.45;;;13.00;59.70;;;;;;5045919;28;20764;-54
2022/07/16 09:31:33;;;;;;;5.20;4.07;;;12.90;59.70;;;;;;5034293;28;20216;-55
2022/07/16 09:34:06;;;;;;;4.97;4.45;;;12.90;59.70;;;;;;5031804;28;20208;-52
2022/07/16 09:36:37;;;;;;;4.38;3.95;;;12.90;59.60;;;;;;5032410;28;20709;-56
2022/07/16 09:39:09;;;;;;;5.40;4.20;;;12.90;59.60;;;;;;5032373;28;20200;-53
2022/07/16 09:41:47;;;;;;;4.72;3.95;;;12.90;59.60;;;;;;5039136;28;20195;-49
2022/07/16 09:44:19;;;;;;;4.53;3.80;;;12.90;59.60;;;;;;5045494;28;20192;-49
2022/07/16 09:47:05;;;;;;;4.65;4.25;;;12.90;59.70;;;;;;5039504;28;20679;-53
2022/07/16 09:49:36;;;;;;;4.25;3.80;;;12.90;59.70;;;;;;5032969;28;20220;-49
2022/07/16 09:52:08;;;;;;;4.07;3.55;;;12.90;59.70;;;;;;5047466;28;20204;-47
2022/07/16 09:54:39;;;;;;;4.10;3.70;;;12.80;59.60;;;;;;5037554;28;20193;-58
2022/07/16 09:57:15;;;;;;;4.82;3.55;;;12.80;59.60;;;;;;5032382;28;20196;-58
2022/07/16 09:59:47;;;;;;;4.40;3.58;;;12.80;59.60;;;;;;5046574;28;20211;-49
2022/07/16 10:02:19;;;;;;;3.78;3.38;;;12.80;59.70;;;;;;5041152;28;20576;-53
2022/07/16 10:04:50;;;;;;;3.42;3.13;;;12.80;59.60;;;;;;5030230;28;20184;-49
2022/07/16 10:07:21;;;;;;;4.60;3.47;;;12.80;59.60;;;;;;5031215;28;20220;-48
2022/07/16 10:09:52;;;;;;;4.97;3.50;;;12.80;59.60;;;;;;5031272;28;20211;-51
2022/07/16 10:12:24;;;;;;;4.60;3.15;;;12.80;59.60;;;;;;5030690;28;20199;-49
2022/07/16 10:14:57;;;;;;;4.05;3.63;;;12.80;59.60;;;;;;5030519;28;20204;-43
2022/07/16 10:17:36;;;;;;;4.00;2.97;;;12.80;59.60;;;;;;5030513;28;20193;-48
2022/07/16 10:20:09;;;;;;;3.70;3.22;;;12.70;59.50;;;;;;5030581;28;20262;-46
2022/07/16 10:22:41;;;;;;;3.65;3.13;;;12.70;59.50;;;;;;5036107;28;20656;-51
2022/07/16 10:25:16;;;;;;;3.17;2.88;;;12.70;59.50;;;;;;5029780;28;20203;-45
2022/07/16 10:27:48;;;;;;;3.75;2.95;;;12.70;59.50;;;;;;5030752;28;20226;-43
2022/07/16 10:30:21;;;;;;;3.92;3.08;;;12.70;59.60;;;;;;5029832;28;20616;-48
2022/07/16 10:33:16;;;;;;;4.07;3.15;;;12.60;59.50;;;;;;5029959;28;20200;-43
2022/07/16 10:35:49;;;;;;;3.97;3.13;;;12.60;59.60;;;;;;5030429;28;20196;-45
2022/07/16 10:38:22;;;;;;;3.00;2.70;;;12.70;59.60;;;;;;5030339;28;20232;-49
2022/07/16 10:41:08;;;;;;;3.53;2.72;;;12.60;59.50;;;;;;5030141;28;20243;-46
2022/07/16 10:43:39;;;;;;;4.00;3.20;;;12.60;59.50;;;;;;5030084;28;20561;-50
2022/07/16 10:46:11;;;;;;;3.28;2.78;;;12.60;59.50;;;;;;5029285;28;20652;-50
2022/07/16 10:49:19;;;;;;;2.83;2.47;;;12.70;59.60;;;;;;5029166;28;20223;-45
2022/07/16 10:52:01;;;;;;;2.95;2.60;;;12.60;59.50;;;;;;5040101;28;20204;-47
2022/07/16 10:54:33;;;;;;;3.45;2.70;;;12.60;59.40;;;;;;5030253;28;20192;-43
2022/07/16 10:57:05;;;;;;;3.25;2.95;;;12.60;59.40;;;;;;5029483;28;20199;-52
2022/07/16 10:59:38;;;;;;;3.00;2.70;;;12.60;59.50;;;;;;5031231;28;20242;-45
2022/07/16 11:02:10;;;;;;;2.72;2.42;;;12.60;59.50;;;;;;5029442;28;20446;-47
2022/07/16 11:04:44;;;;;;;3.53;2.45;;;12.50;59.40;;;;;;5029360;28;20192;-44
2022/07/16 11:07:16;;;;;;;3.17;2.47;;;12.50;59.50;;;;;;5030376;28;20224;-43
2022/07/16 11:09:48;;;;;;;2.90;2.60;;;12.50;59.50;;;;;;5028462;28;20216;-43
2022/07/16 11:12:19;;;;;;;3.47;2.63;;;12.50;59.50;;;;;;5030166;28;20199;-47
2022/07/16 11:14:51;;;;;;;3.47;3.00;;;12.50;59.50;;;;;;5029611;28;20239;-44
2022/07/16 11:17:23;;;;;;;3.58;2.70;;;12.50;59.50;;;;;;5029526;28;20208;-51
2022/07/16 11:19:57;;;;;;;3.42;2.45;;;12.40;59.40;;;;;;5028350;28;20274;-51
2022/07/16 11:22:29;;;;;;;3.55;2.20;;;12.50;59.70;;;;;;5033724;28;20279;-50
2022/07/16 11:25:02;;;;;;;2.53;2.00;;;12.50;60.20;;;;;;5029813;28;20552;-45
2022/07/16 11:27:34;;;;;;;3.42;2.40;;;12.60;60.20;;;;;;5029526;28;20232;-46
2022/07/16 11:30:06;;;;;;;3.38;2.22;;;12.60;60.20;;;;;;5036694;28;20227;-49
2022/07/16 11:32:44;;;;;;;3.95;2.53;;;12.60;60.10;;;;;;5037912;28;20707;-46
2022/07/16 11:35:20;;;;;;;3.15;2.58;;;12.60;60.10;;;;;;5028703;28;20192;-45
2022/07/16 11:37:54;;;;;;;4.15;2.78;;;12.60;60.00;;;;;;5029490;28;20637;-48
2022/07/16 11:40:35;;;;;;;4.15;2.65;;;12.60;60.00;;;;;;5030102;28;20216;-46
2022/07/16 11:43:06;;;;;;;3.58;2.28;;;12.60;60.10;;;;;;5029091;28;20207;-52
2022/07/16 11:45:44;;;;;;;3.88;2.78;;;12.60;60.10;;;;;;5028987;28;20536;-53
2022/07/16 11:48:16;;;;;;;4.28;2.58;;;12.60;60.20;;;;;;5028620;28;20318;-45
2022/07/16 11:50:50;;;;;;;3.63;2.42;;;12.60;60.20;;;;;;5032707;28;20211;-43
2022/07/16 11:53:32;;;;;;;4.70;3.20;;;12.60;60.20;;;;;;5049350;28;20229;-45
2022/07/16 11:56:03;;;;;;;5.55;2.95;;;12.50;60.20;;;;;;5028415;28;20196;-46
2022/07/16 11:58:33;;;;;;;4.78;3.00;;;12.50;60.20;;;;;;5030529;28;20195;-48
2022/07/16 12:01:04;;;;;;;5.13;2.80;;;12.50;60.30;;;;;;5028375;28;20223;-47
2022/07/16 12:03:35;;;;;;;5.00;2.67;;;12.50;60.20;;;;;;5028706;28;20668;-50
2022/07/16 12:06:09;;;;;;;4.18;2.92;;;12.50;60.10;;;;;;5030789;28;20195;-48
2022/07/16 12:08:54;;;;;;;4.05;3.13;;;12.50;60.10;;;;;;5031305;28;20289;-47
2022/07/16 12:11:32;;;;;;;4.47;2.88;;;12.50;60.10;;;;;;5029012;28;20875;-44
2022/07/16 12:14:04;;;;;;;5.03;3.30;;;12.50;60.30;;;;;;5028872;28;20219;-47
2022/07/16 12:16:34;;;;;;;5.13;2.67;;;12.50;60.30;;;;;;5029292;28;20226;-50
2022/07/16 12:19:07;;;;;;;5.20;3.10;;;12.40;60.30;;;;;;5029761;28;20204;-47
2022/07/16 12:21:40;;;;;;;5.53;3.05;;;12.40;60.40;;;;;;5034764;28;20196;-52
2022/07/16 12:24:12;;;;;;;3.88;2.88;;;12.40;60.40;;;;;;5029509;28;20211;-50
2022/07/16 12:26:43;;;;;;;4.22;2.70;;;12.40;60.40;;;;;;5028844;28;20197;-47
2022/07/16 12:29:15;;;;;;;4.63;2.65;;;12.30;60.20;;;;;;5029211;28;20224;-53
2022/07/16 12:31:46;;;;;;;3.72;2.70;;;12.40;60.10;;;;;;5029588;28;20215;-51
2022/07/16 12:34:17;;;;;;;4.05;2.60;;;12.30;60.00;;;;;;5029587;28;20196;-55
2022/07/16 12:36:49;;;;;;;4.35;3.20;;;12.30;60.00;;;;;;5030055;28;20203;-50
2022/07/16 12:39:23;;;;;;;4.43;3.00;;;12.30;59.90;;;;;;5029223;28;20232;-45
2022/07/16 12:41:54;;;;;;;4.45;2.80;;;12.30;59.90;;;;;;5029554;28;20648;-55
2022/07/16 12:44:25;;;;;;;3.80;2.47;;;12.30;59.90;;;;;;5046986;28;20200;-45
2022/07/16 12:46:56;;;;;;;3.25;2.95;;;12.30;59.90;;;;;;5049283;28;20278;-43
2022/07/16 12:49:28;;;;;;;3.97;2.72;;;12.20;59.80;;;;;;5049230;28;20234;-51
2022/07/16 12:52:01;;;;;;;4.55;2.65;;;12.20;59.80;;;;;;5035532;28;20846;-52
2022/07/16 13:00:02;;;;;;;4.43;2.45;;;12.20;59.80;;;;;;5048750;28;20222;-50
2022/07/16 13:02:33;;;;;;;4.65;2.72;;;12.20;59.80;;;;;;5048675;28;20195;-52
2022/07/16 13:05:04;;;;;;;4.05;2.42;;;12.20;59.80;;;;;;5048641;28;20207;-54
2022/07/16 13:07:36;;;;;;;3.60;2.38;;;12.10;59.70;;;;;;5049826;28;20200;-52
2022/07/16 13:10:07;;;;;;;3.20;2.60;;;12.20;59.70;;;;;;5052260;28;20223;-50
2022/07/16 13:12:38;;;;;;;4.45;2.50;;;12.10;59.60;;;;;;5051669;28;20207;-51
2022/07/16 13:15:09;;;;;;;3.03;2.20;;;12.10;59.60;;;;;;5052617;28;20202;-47
2022/07/16 13:17:41;;;;;;;3.00;2.40;;;12.10;59.50;;;;;;5052786;28;20199;-47
2022/07/16 13:20:13;;;;;;;3.97;2.40;;;12.10;59.50;;;;;;5052320;28;20617;-46
2022/07/16 13:22:46;;;;;;;2.92;2.30;;;12.10;59.50;;;;;;5050395;28;20231;-47
2022/07/16 13:25:17;;;;;;;2.72;2.13;;;12.00;59.60;;;;;;5051992;28;20199;-43
2022/07/16 13:27:47;;;;;;;2.97;2.15;;;12.00;59.50;;;;;;5051166;28;20745;-43
2022/07/16 13:30:18;;;;;;;2.95;2.25;;;12.00;59.60;;;;;;5052120;28;20942;-47
2022/07/16 13:32:49;;;;;;;3.55;2.50;;;12.00;59.50;;;;;;5052076;28;20655;-48
2022/07/16 13:35:20;;;;;;;3.20;2.22;;;12.00;59.50;;;;;;5052090;28;20203;-50